sensor_id;sensor_type;location;lat;lon;timestamp;temperature;humidity
13982;DHT22;7065;50.880;5.502;2022-10-17T00:00:28;13.20;99.90
13982;DHT22;7065;50.880;5.502;2022-10-17T00:02:55;13.20;99.90
13982;DHT22;7065;50.880;5.502;2022-10-17T00:05:21;13.30;99.90
13982;DHT22;7065;50.880;5.502;2022-10-17T00:07:47;13.40;99.90
13982;DHT22;7065;50.880;5.502;2022-10-17T00:10:12;13.50;99.90
13982;DHT22;7065;50.880;5.502;2022-10-17T00:12:38;13.60;99.90
13982;DHT22;7065;50.880;5.502;2022-10-17T00:15:05;13.70;99.90
13982;DHT22;7065;50.880;5.502;2022-10-17T00:17:31;13.80;99.90
13982;DHT22;7065;50.880;5.502;2022-10-17T00:19:59;13.90;99.90
13982;DHT22;7065;50.880;5.502;2022-10-17T00:22:25;14.00;99.90
13982;DHT22;7065;50.880;5.502;2022-10-17T00:24:51;14.10;99.90
13982;DHT22;7065;50.880;5.502;2022-10-17T00:27:16;14.20;99.90
13982;DHT22;7065;50.880;5.502;2022-10-17T00:29:42;14.20;99.90
13982;DHT22;7065;50.880;5.502;2022-10-17T00:32:07;14.20;99.90
13982;DHT22;7065;50.880;5.502;2022-10-17T00:34:33;14.30;99.90
13982;DHT22;7065;50.880;5.502;2022-10-17T00:36:59;14.40;99.90
13982;DHT22;7065;50.880;5.502;2022-10-17T00:39:24;14.50;99.90
13982;DHT22;7065;50.880;5.502;2022-10-17T00:41:50;14.60;99.90
13982;DHT22;7065;50.880;5.502;2022-10-17T00:46:55;14.70;99.90
13982;DHT22;7065;50.880;5.502;2022-10-17T00:49:23;14.80;99.90
13982;DHT22;7065;50.880;5.502;2022-10-17T00:51:52;14.80;99.90
13982;DHT22;7065;50.880;5.502;2022-10-17T00:54:24;14.90;99.90
13982;DHT22;7065;50.880;5.502;2022-10-17T00:56:51;14.80;99.90
13982;DHT22;7065;50.880;5.502;2022-10-17T00:59:19;14.90;99.90
13982;DHT22;7065;50.880;5.502;2022-10-17T01:02:21;14.90;99.90
13982;DHT22;7065;50.880;5.502;2022-10-17T01:04:50;15.00;99.90
13982;DHT22;7065;50.880;5.502;2022-10-17T01:07:16;15.00;99.90
13982;DHT22;7065;50.880;5.502;2022-10-17T01:09:44;15.00;99.90
13982;DHT22;7065;50.880;5.502;2022-10-17T01:17:52;15.10;99.90
13982;DHT22;7065;50.880;5.502;2022-10-17T01:26:13;15.20;99.90
13982;DHT22;7065;50.880;5.502;2022-10-17T01:34:38;15.20;99.90
13982;DHT22;7065;50.880;5.502;2022-10-17T01:40:18;15.20;99.90
13982;DHT22;7065;50.880;5.502;2022-10-17T01:43:07;15.20;99.90
13982;DHT22;7065;50.880;5.502;2022-10-17T01:45:46;15.20;99.90
13982;DHT22;7065;50.880;5.502;2022-10-17T01:48:17;15.20;99.90
13982;DHT22;7065;50.880;5.502;2022-10-17T01:50:49;15.20;99.90
13982;DHT22;7065;50.880;5.502;2022-10-17T01:53:25;15.20;99.90
13982;DHT22;7065;50.880;5.502;2022-10-17T01:55:55;15.10;99.90
13982;DHT22;7065;50.880;5.502;2022-10-17T01:58:27;15.10;99.90
13982;DHT22;7065;50.880;5.502;2022-10-17T02:00:55;15.10;99.90
13982;DHT22;7065;50.880;5.502;2022-10-17T02:03:23;15.10;99.90
13982;DHT22;7065;50.880;5.502;2022-10-17T02:05:49;15.20;99.90
13982;DHT22;7065;50.880;5.502;2022-10-17T02:08:25;15.20;99.90
13982;DHT22;7065;50.880;5.502;2022-10-17T02:11:03;15.20;99.90
13982;DHT22;7065;50.880;5.502;2022-10-17T02:22:05;15.10;99.90
13982;DHT22;7065;50.880;5.502;2022-10-17T02:27:14;15.10;99.90
13982;DHT22;7065;50.880;5.502;2022-10-17T02:32:54;15.10;99.90
13982;DHT22;7065;50.880;5.502;2022-10-17T02:35:21;15.10;99.90
13982;DHT22;7065;50.880;5.502;2022-10-17T02:37:50;15.10;99.90
13982;DHT22;7065;50.880;5.502;2022-10-17T02:40:18;15.10;99.90
13982;DHT22;7065;50.880;5.502;2022-10-17T02:42:45;15.10;99.90
13982;DHT22;7065;50.880;5.502;2022-10-17T02:45:12;15.10;99.90
13982;DHT22;7065;50.880;5.502;2022-10-17T02:48:07;15.10;99.90
13982;DHT22;7065;50.880;5.502;2022-10-17T02:50:42;15.10;99.90
13982;DHT22;7065;50.880;5.502;2022-10-17T02:53:14;15.20;99.90
13982;DHT22;7065;50.880;5.502;2022-10-17T02:55:52;15.10;99.90
13982;DHT22;7065;50.880;5.502;2022-10-17T02:58:20;15.10;99.90
13982;DHT22;7065;50.880;5.502;2022-10-17T03:00:49;15.20;99.90
13982;DHT22;7065;50.880;5.502;2022-10-17T03:03:24;15.20;99.90
13982;DHT22;7065;50.880;5.502;2022-10-17T03:05:50;15.20;99.90
13982;DHT22;7065;50.880;5.502;2022-10-17T03:08:17;15.20;99.90
13982;DHT22;7065;50.880;5.502;2022-10-17T03:10:42;15.20;99.90
13982;DHT22;7065;50.880;5.502;2022-10-17T03:13:08;15.20;99.90
13982;DHT22;7065;50.880;5.502;2022-10-17T03:15:34;15.20;99.90
13982;DHT22;7065;50.880;5.502;2022-10-17T03:17:59;15.30;99.90
13982;DHT22;7065;50.880;5.502;2022-10-17T03:20:25;15.30;99.90
13982;DHT22;7065;50.880;5.502;2022-10-17T03:22:51;15.30;99.90
13982;DHT22;7065;50.880;5.502;2022-10-17T03:25:16;15.30;99.90
13982;DHT22;7065;50.880;5.502;2022-10-17T03:27:43;15.30;99.90
13982;DHT22;7065;50.880;5.502;2022-10-17T03:30:09;15.30;99.90
13982;DHT22;7065;50.880;5.502;2022-10-17T03:32:34;15.30;99.90
13982;DHT22;7065;50.880;5.502;2022-10-17T03:35:00;15.30;99.90
13982;DHT22;7065;50.880;5.502;2022-10-17T03:37:26;15.20;99.90
13982;DHT22;7065;50.880;5.502;2022-10-17T03:39:51;15.20;99.90
13982;DHT22;7065;50.880;5.502;2022-10-17T03:42:17;15.20;99.90
13982;DHT22;7065;50.880;5.502;2022-10-17T03:44:43;15.20;99.90
13982;DHT22;7065;50.880;5.502;2022-10-17T03:47:08;15.20;99.90
13982;DHT22;7065;50.880;5.502;2022-10-17T03:49:34;15.20;99.90
13982;DHT22;7065;50.880;5.502;2022-10-17T03:52:00;15.30;99.90
13982;DHT22;7065;50.880;5.502;2022-10-17T03:54:25;15.40;99.90
13982;DHT22;7065;50.880;5.502;2022-10-17T03:56:51;15.40;99.90
13982;DHT22;7065;50.880;5.502;2022-10-17T03:59:17;15.40;99.90
13982;DHT22;7065;50.880;5.502;2022-10-17T04:01:42;15.40;99.90
13982;DHT22;7065;50.880;5.502;2022-10-17T04:04:08;15.40;99.90
13982;DHT22;7065;50.880;5.502;2022-10-17T04:06:35;15.40;99.90
13982;DHT22;7065;50.880;5.502;2022-10-17T04:09:01;15.40;99.90
13982;DHT22;7065;50.880;5.502;2022-10-17T04:11:28;15.30;99.90
13982;DHT22;7065;50.880;5.502;2022-10-17T04:13:55;15.40;99.90
13982;DHT22;7065;50.880;5.502;2022-10-17T04:16:22;15.40;99.90
13982;DHT22;7065;50.880;5.502;2022-10-17T04:18:52;15.40;99.90
13982;DHT22;7065;50.880;5.502;2022-10-17T04:21:19;15.40;99.90
13982;DHT22;7065;50.880;5.502;2022-10-17T04:23:45;15.40;99.90
13982;DHT22;7065;50.880;5.502;2022-10-17T04:26:11;15.40;99.90
13982;DHT22;7065;50.880;5.502;2022-10-17T04:28:37;15.40;99.90
13982;DHT22;7065;50.880;5.502;2022-10-17T04:31:09;15.40;99.90
13982;DHT22;7065;50.880;5.502;2022-10-17T04:33:36;15.40;99.90
13982;DHT22;7065;50.880;5.502;2022-10-17T04:36:07;15.50;99.90
13982;DHT22;7065;50.880;5.502;2022-10-17T04:38:34;15.40;99.90
13982;DHT22;7065;50.880;5.502;2022-10-17T04:41:01;15.40;99.90
13982;DHT22;7065;50.880;5.502;2022-10-17T04:43:28;15.40;99.90
13982;DHT22;7065;50.880;5.502;2022-10-17T04:45:56;15.40;99.90
13982;DHT22;7065;50.880;5.502;2022-10-17T04:48:22;15.40;99.90
13982;DHT22;7065;50.880;5.502;2022-10-17T04:51:10;15.40;99.90
13982;DHT22;7065;50.880;5.502;2022-10-17T04:53:37;15.40;99.90
13982;DHT22;7065;50.880;5.502;2022-10-17T04:56:13;15.50;99.90
13982;DHT22;7065;50.880;5.502;2022-10-17T04:58:40;15.50;99.90
13982;DHT22;7065;50.880;5.502;2022-10-17T05:01:08;15.40;99.90
13982;DHT22;7065;50.880;5.502;2022-10-17T05:03:34;15.50;99.90
13982;DHT22;7065;50.880;5.502;2022-10-17T05:06:06;15.40;99.90
13982;DHT22;7065;50.880;5.502;2022-10-17T05:08:32;15.40;99.90
13982;DHT22;7065;50.880;5.502;2022-10-17T05:10:57;15.50;99.90
13982;DHT22;7065;50.880;5.502;2022-10-17T05:13:23;15.50;99.90
13982;DHT22;7065;50.880;5.502;2022-10-17T05:15:49;15.60;99.90
13982;DHT22;7065;50.880;5.502;2022-10-17T05:18:14;15.70;99.90
13982;DHT22;7065;50.880;5.502;2022-10-17T05:20:40;15.60;99.90
13982;DHT22;7065;50.880;5.502;2022-10-17T05:23:06;15.60;99.90
13982;DHT22;7065;50.880;5.502;2022-10-17T05:25:31;15.70;99.90
13982;DHT22;7065;50.880;5.502;2022-10-17T05:27:57;15.70;99.90
13982;DHT22;7065;50.880;5.502;2022-10-17T05:30:23;15.70;99.90
13982;DHT22;7065;50.880;5.502;2022-10-17T05:32:53;15.70;99.90
13982;DHT22;7065;50.880;5.502;2022-10-17T05:35:19;15.70;99.90
13982;DHT22;7065;50.880;5.502;2022-10-17T05:37:45;15.70;99.90
13982;DHT22;7065;50.880;5.502;2022-10-17T05:40:11;15.80;99.90
13982;DHT22;7065;50.880;5.502;2022-10-17T05:42:37;15.80;99.90
13982;DHT22;7065;50.880;5.502;2022-10-17T05:45:03;15.90;99.90
13982;DHT22;7065;50.880;5.502;2022-10-17T05:47:29;15.90;99.90
13982;DHT22;7065;50.880;5.502;2022-10-17T05:49:54;15.90;99.90
13982;DHT22;7065;50.880;5.502;2022-10-17T05:52:20;15.90;99.90
13982;DHT22;7065;50.880;5.502;2022-10-17T05:54:46;15.90;99.90
13982;DHT22;7065;50.880;5.502;2022-10-17T05:57:11;15.90;99.90
13982;DHT22;7065;50.880;5.502;2022-10-17T05:59:37;15.90;99.90
13982;DHT22;7065;50.880;5.502;2022-10-17T06:02:03;15.90;99.90
13982;DHT22;7065;50.880;5.502;2022-10-17T06:04:28;15.90;99.90
13982;DHT22;7065;50.880;5.502;2022-10-17T06:06:54;15.90;99.90
13982;DHT22;7065;50.880;5.502;2022-10-17T06:09:21;15.90;99.90
13982;DHT22;7065;50.880;5.502;2022-10-17T06:11:47;15.90;99.90
13982;DHT22;7065;50.880;5.502;2022-10-17T06:14:13;15.90;99.90
13982;DHT22;7065;50.880;5.502;2022-10-17T06:16:38;15.90;99.90
13982;DHT22;7065;50.880;5.502;2022-10-17T06:19:04;15.90;99.90
13982;DHT22;7065;50.880;5.502;2022-10-17T06:21:30;15.90;99.90
13982;DHT22;7065;50.880;5.502;2022-10-17T06:24:00;15.90;99.90
13982;DHT22;7065;50.880;5.502;2022-10-17T06:26:26;15.80;99.90
13982;DHT22;7065;50.880;5.502;2022-10-17T06:28:53;15.80;99.90
13982;DHT22;7065;50.880;5.502;2022-10-17T06:31:19;15.70;99.90
13982;DHT22;7065;50.880;5.502;2022-10-17T06:33:44;15.70;99.90
13982;DHT22;7065;50.880;5.502;2022-10-17T06:36:12;15.70;99.90
13982;DHT22;7065;50.880;5.502;2022-10-17T06:38:38;15.70;99.90
13982;DHT22;7065;50.880;5.502;2022-10-17T06:41:10;15.70;99.90
13982;DHT22;7065;50.880;5.502;2022-10-17T06:43:38;15.70;99.90
13982;DHT22;7065;50.880;5.502;2022-10-17T06:46:05;15.70;99.90
13982;DHT22;7065;50.880;5.502;2022-10-17T06:48:32;15.70;99.90
13982;DHT22;7065;50.880;5.502;2022-10-17T06:50:59;15.70;99.90
13982;DHT22;7065;50.880;5.502;2022-10-17T06:53:29;15.80;99.90
13982;DHT22;7065;50.880;5.502;2022-10-17T06:55:55;15.80;99.90
13982;DHT22;7065;50.880;5.502;2022-10-17T06:58:35;15.90;99.90
13982;DHT22;7065;50.880;5.502;2022-10-17T07:01:04;15.90;99.90
13982;DHT22;7065;50.880;5.502;2022-10-17T07:03:31;15.90;99.90
13982;DHT22;7065;50.880;5.502;2022-10-17T07:05:57;15.90;99.90
13982;DHT22;7065;50.880;5.502;2022-10-17T07:08:23;15.90;99.90
13982;DHT22;7065;50.880;5.502;2022-10-17T07:10:49;15.90;99.90
13982;DHT22;7065;50.880;5.502;2022-10-17T07:13:16;16.00;99.90
13982;DHT22;7065;50.880;5.502;2022-10-17T07:15:42;16.00;99.90
13982;DHT22;7065;50.880;5.502;2022-10-17T07:18:08;16.10;99.90
13982;DHT22;7065;50.880;5.502;2022-10-17T07:20:34;16.20;99.90
13982;DHT22;7065;50.880;5.502;2022-10-17T07:23:00;16.30;99.90
13982;DHT22;7065;50.880;5.502;2022-10-17T07:25:25;16.40;99.90
13982;DHT22;7065;50.880;5.502;2022-10-17T07:27:52;16.40;99.90
13982;DHT22;7065;50.880;5.502;2022-10-17T07:30:18;16.60;99.90
13982;DHT22;7065;50.880;5.502;2022-10-17T07:32:44;16.60;99.90
13982;DHT22;7065;50.880;5.502;2022-10-17T07:35:10;16.70;99.90
13982;DHT22;7065;50.880;5.502;2022-10-17T07:37:36;16.80;99.90
13982;DHT22;7065;50.880;5.502;2022-10-17T07:40:03;16.80;99.90
13982;DHT22;7065;50.880;5.502;2022-10-17T07:42:29;16.90;99.90
13982;DHT22;7065;50.880;5.502;2022-10-17T07:44:55;16.90;99.90
13982;DHT22;7065;50.880;5.502;2022-10-17T07:47:20;17.00;99.90
13982;DHT22;7065;50.880;5.502;2022-10-17T07:49:46;17.00;99.90
13982;DHT22;7065;50.880;5.502;2022-10-17T07:52:13;17.00;99.90
13982;DHT22;7065;50.880;5.502;2022-10-17T07:54:39;17.10;99.90
13982;DHT22;7065;50.880;5.502;2022-10-17T07:57:05;17.10;99.90
13982;DHT22;7065;50.880;5.502;2022-10-17T07:59:35;17.10;99.90
13982;DHT22;7065;50.880;5.502;2022-10-17T08:02:01;17.10;99.90
13982;DHT22;7065;50.880;5.502;2022-10-17T08:04:27;17.10;99.90
13982;DHT22;7065;50.880;5.502;2022-10-17T08:06:54;17.30;99.90
13982;DHT22;7065;50.880;5.502;2022-10-17T08:09:19;17.40;99.90
13982;DHT22;7065;50.880;5.502;2022-10-17T08:11:45;17.40;99.90
13982;DHT22;7065;50.880;5.502;2022-10-17T08:14:12;17.50;99.90
13982;DHT22;7065;50.880;5.502;2022-10-17T08:16:41;17.60;99.90
13982;DHT22;7065;50.880;5.502;2022-10-17T08:19:07;17.70;99.90
13982;DHT22;7065;50.880;5.502;2022-10-17T08:21:37;17.70;99.90
13982;DHT22;7065;50.880;5.502;2022-10-17T08:24:03;17.70;99.90
13982;DHT22;7065;50.880;5.502;2022-10-17T08:26:29;17.70;99.90
13982;DHT22;7065;50.880;5.502;2022-10-17T08:28:55;17.70;99.90
13982;DHT22;7065;50.880;5.502;2022-10-17T08:31:21;17.60;99.90
13982;DHT22;7065;50.880;5.502;2022-10-17T08:33:48;17.60;99.90
13982;DHT22;7065;50.880;5.502;2022-10-17T08:36:17;17.70;99.90
13982;DHT22;7065;50.880;5.502;2022-10-17T08:38:43;17.80;99.90
13982;DHT22;7065;50.880;5.502;2022-10-17T08:46:36;17.80;99.90
13982;DHT22;7065;50.880;5.502;2022-10-17T08:49:08;17.80;99.90
13982;DHT22;7065;50.880;5.502;2022-10-17T08:51:39;17.90;99.90
13982;DHT22;7065;50.880;5.502;2022-10-17T08:54:17;17.90;99.90
13982;DHT22;7065;50.880;5.502;2022-10-17T08:56:48;17.90;99.90
13982;DHT22;7065;50.880;5.502;2022-10-17T08:59:20;17.80;99.90
13982;DHT22;7065;50.880;5.502;2022-10-17T09:10:12;17.90;99.90
13982;DHT22;7065;50.880;5.502;2022-10-17T09:15:40;17.90;99.90
13982;DHT22;7065;50.880;5.502;2022-10-17T09:18:11;17.80;99.90
13982;DHT22;7065;50.880;5.502;2022-10-17T09:20:50;17.90;99.90
13982;DHT22;7065;50.880;5.502;2022-10-17T09:23:25;18.00;99.90
13982;DHT22;7065;50.880;5.502;2022-10-17T09:25:58;18.00;99.90
13982;DHT22;7065;50.880;5.502;2022-10-17T09:28:37;18.10;99.90
13982;DHT22;7065;50.880;5.502;2022-10-17T09:31:08;18.10;99.90
13982;DHT22;7065;50.880;5.502;2022-10-17T09:33:43;18.20;99.90
13982;DHT22;7065;50.880;5.502;2022-10-17T09:36:16;18.20;99.90
13982;DHT22;7065;50.880;5.502;2022-10-17T09:38:48;18.10;99.90
13982;DHT22;7065;50.880;5.502;2022-10-17T09:41:20;18.10;99.90
13982;DHT22;7065;50.880;5.502;2022-10-17T09:43:47;18.10;99.90
13982;DHT22;7065;50.880;5.502;2022-10-17T09:46:18;18.00;99.90
13982;DHT22;7065;50.880;5.502;2022-10-17T09:51:26;17.90;99.90
13982;DHT22;7065;50.880;5.502;2022-10-17T09:53:59;17.80;99.90
13982;DHT22;7065;50.880;5.502;2022-10-17T09:56:26;17.80;99.90
13982;DHT22;7065;50.880;5.502;2022-10-17T09:58:55;17.80;99.90
13982;DHT22;7065;50.880;5.502;2022-10-17T10:01:29;17.70;99.90
13982;DHT22;7065;50.880;5.502;2022-10-17T10:04:11;17.70;99.90
13982;DHT22;7065;50.880;5.502;2022-10-17T10:06:39;17.50;99.90
13982;DHT22;7065;50.880;5.502;2022-10-17T10:09:05;17.50;99.90
13982;DHT22;7065;50.880;5.502;2022-10-17T10:11:50;17.50;99.90
13982;DHT22;7065;50.880;5.502;2022-10-17T10:14:37;17.40;99.90
13982;DHT22;7065;50.880;5.502;2022-10-17T10:17:45;17.40;99.90
13982;DHT22;7065;50.880;5.502;2022-10-17T10:20:26;17.50;99.90
13982;DHT22;7065;50.880;5.502;2022-10-17T10:25:29;17.50;99.90
13982;DHT22;7065;50.880;5.502;2022-10-17T10:27:54;17.50;99.90
13982;DHT22;7065;50.880;5.502;2022-10-17T10:30:26;17.50;99.90
13982;DHT22;7065;50.880;5.502;2022-10-17T10:32:52;17.50;99.90
13982;DHT22;7065;50.880;5.502;2022-10-17T10:35:32;17.50;99.90
13982;DHT22;7065;50.880;5.502;2022-10-17T10:38:01;17.50;99.90
13982;DHT22;7065;50.880;5.502;2022-10-17T10:40:31;17.50;99.90
13982;DHT22;7065;50.880;5.502;2022-10-17T10:43:00;17.50;99.90
13982;DHT22;7065;50.880;5.502;2022-10-17T10:48:04;17.60;99.90
13982;DHT22;7065;50.880;5.502;2022-10-17T10:50:47;17.60;99.90
13982;DHT22;7065;50.880;5.502;2022-10-17T10:58:57;17.70;99.90
13982;DHT22;7065;50.880;5.502;2022-10-17T11:04:26;17.80;99.90
13982;DHT22;7065;50.880;5.502;2022-10-17T11:07:04;17.90;99.90
13982;DHT22;7065;50.880;5.502;2022-10-17T11:09:51;17.90;99.90
13982;DHT22;7065;50.880;5.502;2022-10-17T11:12:26;18.00;99.90
13982;DHT22;7065;50.880;5.502;2022-10-17T11:14:57;18.10;99.90
13982;DHT22;7065;50.880;5.502;2022-10-17T11:22:46;18.30;99.90
13982;DHT22;7065;50.880;5.502;2022-10-17T11:25:33;18.30;99.90
13982;DHT22;7065;50.880;5.502;2022-10-17T11:28:01;18.30;99.90
13982;DHT22;7065;50.880;5.502;2022-10-17T11:30:41;18.40;99.90
13982;DHT22;7065;50.880;5.502;2022-10-17T11:33:13;18.40;99.90
13982;DHT22;7065;50.880;5.502;2022-10-17T11:35:42;18.40;99.90
13982;DHT22;7065;50.880;5.502;2022-10-17T11:38:34;18.40;99.90
13982;DHT22;7065;50.880;5.502;2022-10-17T11:41:01;18.40;99.90
13982;DHT22;7065;50.880;5.502;2022-10-17T11:43:48;18.40;99.90
13982;DHT22;7065;50.880;5.502;2022-10-17T11:46:26;18.40;99.90
13982;DHT22;7065;50.880;5.502;2022-10-17T11:49:05;18.40;99.90
13982;DHT22;7065;50.880;5.502;2022-10-17T11:51:47;18.40;99.90
13982;DHT22;7065;50.880;5.502;2022-10-17T12:02:53;18.70;99.90
13982;DHT22;7065;50.880;5.502;2022-10-17T12:05:42;18.70;99.90
13982;DHT22;7065;50.880;5.502;2022-10-17T12:11:00;18.70;99.90
13982;DHT22;7065;50.880;5.502;2022-10-17T12:15:55;18.70;99.90
13982;DHT22;7065;50.880;5.502;2022-10-17T12:18:25;18.70;99.90
13982;DHT22;7065;50.880;5.502;2022-10-17T12:20:58;18.70;99.90
13982;DHT22;7065;50.880;5.502;2022-10-17T12:23:31;18.70;99.90
13982;DHT22;7065;50.880;5.502;2022-10-17T12:26:01;18.70;99.90
13982;DHT22;7065;50.880;5.502;2022-10-17T12:33:57;18.70;99.90
13982;DHT22;7065;50.880;5.502;2022-10-17T12:54:51;18.80;99.90
13982;DHT22;7065;50.880;5.502;2022-10-17T12:57:26;18.80;99.90
13982;DHT22;7065;50.880;5.502;2022-10-17T12:59:54;18.80;99.90
13982;DHT22;7065;50.880;5.502;2022-10-17T13:02:23;18.80;99.90
13982;DHT22;7065;50.880;5.502;2022-10-17T13:04:56;18.80;99.90
13982;DHT22;7065;50.880;5.502;2022-10-17T13:07:22;18.80;99.90
13982;DHT22;7065;50.880;5.502;2022-10-17T13:09:49;18.80;99.90
13982;DHT22;7065;50.880;5.502;2022-10-17T13:12:24;18.90;99.90
13982;DHT22;7065;50.880;5.502;2022-10-17T13:14:53;18.90;99.90
13982;DHT22;7065;50.880;5.502;2022-10-17T13:17:24;18.90;99.90
13982;DHT22;7065;50.880;5.502;2022-10-17T13:19:50;18.90;99.90
13982;DHT22;7065;50.880;5.502;2022-10-17T13:22:22;18.90;99.90
13982;DHT22;7065;50.880;5.502;2022-10-17T13:24:50;18.90;99.90
13982;DHT22;7065;50.880;5.502;2022-10-17T13:29:52;18.90;99.90
13982;DHT22;7065;50.880;5.502;2022-10-17T13:32:20;18.90;99.90
13982;DHT22;7065;50.880;5.502;2022-10-17T13:35:13;18.90;99.90
13982;DHT22;7065;50.880;5.502;2022-10-17T13:37:41;18.90;99.90
13982;DHT22;7065;50.880;5.502;2022-10-17T13:40:16;18.90;99.90
13982;DHT22;7065;50.880;5.502;2022-10-17T13:42:42;18.90;99.90
13982;DHT22;7065;50.880;5.502;2022-10-17T13:45:21;18.80;99.90
13982;DHT22;7065;50.880;5.502;2022-10-17T13:47:49;18.80;99.90
13982;DHT22;7065;50.880;5.502;2022-10-17T13:50:24;18.80;99.90
13982;DHT22;7065;50.880;5.502;2022-10-17T13:53:24;18.70;99.90
13982;DHT22;7065;50.880;5.502;2022-10-17T13:56:00;18.80;99.90
13982;DHT22;7065;50.880;5.502;2022-10-17T13:58:39;18.80;99.90
13982;DHT22;7065;50.880;5.502;2022-10-17T14:01:06;18.80;99.90
13982;DHT22;7065;50.880;5.502;2022-10-17T14:03:32;18.80;99.90
13982;DHT22;7065;50.880;5.502;2022-10-17T14:06:22;18.70;99.90
13982;DHT22;7065;50.880;5.502;2022-10-17T14:08:53;18.70;99.90
13982;DHT22;7065;50.880;5.502;2022-10-17T14:11:35;18.70;99.90
13982;DHT22;7065;50.880;5.502;2022-10-17T14:14:03;18.60;99.90
13982;DHT22;7065;50.880;5.502;2022-10-17T14:16:38;18.60;99.90
13982;DHT22;7065;50.880;5.502;2022-10-17T14:19:05;18.50;99.90
13982;DHT22;7065;50.880;5.502;2022-10-17T14:21:37;18.40;99.90
13982;DHT22;7065;50.880;5.502;2022-10-17T14:24:26;18.30;99.90
13982;DHT22;7065;50.880;5.502;2022-10-17T14:26:55;18.30;99.90
13982;DHT22;7065;50.880;5.502;2022-10-17T14:29:24;18.30;99.90
13982;DHT22;7065;50.880;5.502;2022-10-17T14:31:57;18.20;99.90
13982;DHT22;7065;50.880;5.502;2022-10-17T14:34:27;18.20;99.90
13982;DHT22;7065;50.880;5.502;2022-10-17T14:36:54;18.10;99.90
13982;DHT22;7065;50.880;5.502;2022-10-17T14:39:22;18.10;99.90
13982;DHT22;7065;50.880;5.502;2022-10-17T14:41:50;18.00;99.90
13982;DHT22;7065;50.880;5.502;2022-10-17T14:44:20;18.00;99.90
13982;DHT22;7065;50.880;5.502;2022-10-17T14:46:52;17.90;99.90
13982;DHT22;7065;50.880;5.502;2022-10-17T14:49:47;17.80;99.90
13982;DHT22;7065;50.880;5.502;2022-10-17T14:54:44;17.80;99.90
13982;DHT22;7065;50.880;5.502;2022-10-17T14:59:48;17.80;99.90
13982;DHT22;7065;50.880;5.502;2022-10-17T15:02:13;17.70;99.90
13982;DHT22;7065;50.880;5.502;2022-10-17T15:04:39;17.80;99.90
13982;DHT22;7065;50.880;5.502;2022-10-17T15:07:05;17.70;99.90
13982;DHT22;7065;50.880;5.502;2022-10-17T15:09:31;17.70;99.90
13982;DHT22;7065;50.880;5.502;2022-10-17T15:12:01;17.70;99.90
13982;DHT22;7065;50.880;5.502;2022-10-17T15:14:27;17.60;99.90
13982;DHT22;7065;50.880;5.502;2022-10-17T15:16:53;17.60;99.90
13982;DHT22;7065;50.880;5.502;2022-10-17T15:19:19;17.60;99.90
13982;DHT22;7065;50.880;5.502;2022-10-17T15:21:44;17.60;99.90
13982;DHT22;7065;50.880;5.502;2022-10-17T15:24:10;17.60;99.90
13982;DHT22;7065;50.880;5.502;2022-10-17T15:26:36;17.60;99.90
13982;DHT22;7065;50.880;5.502;2022-10-17T15:29:03;17.50;99.90
13982;DHT22;7065;50.880;5.502;2022-10-17T15:31:29;17.50;99.90
13982;DHT22;7065;50.880;5.502;2022-10-17T15:33:58;17.40;99.90
13982;DHT22;7065;50.880;5.502;2022-10-17T15:36:47;17.40;99.90
13982;DHT22;7065;50.880;5.502;2022-10-17T15:39:13;17.40;99.90
13982;DHT22;7065;50.880;5.502;2022-10-17T15:41:38;17.40;99.90
13982;DHT22;7065;50.880;5.502;2022-10-17T15:44:04;17.40;99.90
13982;DHT22;7065;50.880;5.502;2022-10-17T15:46:32;17.40;99.90
13982;DHT22;7065;50.880;5.502;2022-10-17T15:49:04;17.40;99.90
13982;DHT22;7065;50.880;5.502;2022-10-17T15:51:30;17.30;99.90
13982;DHT22;7065;50.880;5.502;2022-10-17T15:53:55;17.30;99.90
13982;DHT22;7065;50.880;5.502;2022-10-17T15:56:25;17.30;99.90
13982;DHT22;7065;50.880;5.502;2022-10-17T15:58:51;17.20;99.90
13982;DHT22;7065;50.880;5.502;2022-10-17T16:01:23;17.20;99.90
13982;DHT22;7065;50.880;5.502;2022-10-17T16:03:49;17.20;99.90
13982;DHT22;7065;50.880;5.502;2022-10-17T16:06:16;17.10;99.90
13982;DHT22;7065;50.880;5.502;2022-10-17T16:08:43;17.10;99.90
13982;DHT22;7065;50.880;5.502;2022-10-17T16:11:29;17.10;99.90
13982;DHT22;7065;50.880;5.502;2022-10-17T16:13:58;17.10;99.90
13982;DHT22;7065;50.880;5.502;2022-10-17T16:16:24;17.00;99.90
13982;DHT22;7065;50.880;5.502;2022-10-17T16:18:50;17.00;99.90
13982;DHT22;7065;50.880;5.502;2022-10-17T16:21:16;17.00;99.90
13982;DHT22;7065;50.880;5.502;2022-10-17T16:23:44;16.90;99.90
13982;DHT22;7065;50.880;5.502;2022-10-17T16:26:10;16.90;99.90
13982;DHT22;7065;50.880;5.502;2022-10-17T16:28:39;16.90;99.90
13982;DHT22;7065;50.880;5.502;2022-10-17T16:31:55;16.90;99.90
13982;DHT22;7065;50.880;5.502;2022-10-17T16:34:03;16.80;99.90
13982;DHT22;7065;50.880;5.502;2022-10-17T16:36:29;16.80;99.90
13982;DHT22;7065;50.880;5.502;2022-10-17T16:38:54;16.80;99.90
13982;DHT22;7065;50.880;5.502;2022-10-17T16:41:29;16.70;99.90
13982;DHT22;7065;50.880;5.502;2022-10-17T16:43:57;16.70;99.90
13982;DHT22;7065;50.880;5.502;2022-10-17T16:46:24;16.70;99.90
13982;DHT22;7065;50.880;5.502;2022-10-17T16:48:51;16.60;99.90
13982;DHT22;7065;50.880;5.502;2022-10-17T16:51:18;16.60;99.90
13982;DHT22;7065;50.880;5.502;2022-10-17T16:53:45;16.50;99.90
13982;DHT22;7065;50.880;5.502;2022-10-17T16:56:13;16.50;99.90
13982;DHT22;7065;50.880;5.502;2022-10-17T16:58:40;16.40;99.90
13982;DHT22;7065;50.880;5.502;2022-10-17T17:01:12;16.40;99.90
13982;DHT22;7065;50.880;5.502;2022-10-17T17:03:40;16.30;99.90
13982;DHT22;7065;50.880;5.502;2022-10-17T17:06:07;16.30;99.90
13982;DHT22;7065;50.880;5.502;2022-10-17T17:08:34;16.20;99.90
13982;DHT22;7065;50.880;5.502;2022-10-17T17:11:02;16.20;99.90
13982;DHT22;7065;50.880;5.502;2022-10-17T17:13:27;16.10;99.90
13982;DHT22;7065;50.880;5.502;2022-10-17T17:16:09;16.10;99.90
13982;DHT22;7065;50.880;5.502;2022-10-17T17:18:35;16.00;99.90
13982;DHT22;7065;50.880;5.502;2022-10-17T17:21:03;16.00;99.90
13982;DHT22;7065;50.880;5.502;2022-10-17T17:23:31;16.00;99.90
13982;DHT22;7065;50.880;5.502;2022-10-17T17:25:59;15.90;99.90
13982;DHT22;7065;50.880;5.502;2022-10-17T17:28:26;15.90;99.90
13982;DHT22;7065;50.880;5.502;2022-10-17T17:30:53;15.90;99.90
13982;DHT22;7065;50.880;5.502;2022-10-17T17:33:19;15.80;99.90
13982;DHT22;7065;50.880;5.502;2022-10-17T17:35:45;15.80;99.90
13982;DHT22;7065;50.880;5.502;2022-10-17T17:38:11;15.80;99.90
13982;DHT22;7065;50.880;5.502;2022-10-17T17:40:43;15.70;99.90
13982;DHT22;7065;50.880;5.502;2022-10-17T17:43:09;15.70;99.90
13982;DHT22;7065;50.880;5.502;2022-10-17T17:45:35;15.70;99.90
13982;DHT22;7065;50.880;5.502;2022-10-17T17:48:00;15.70;99.90
13982;DHT22;7065;50.880;5.502;2022-10-17T17:50:26;15.60;99.90
13982;DHT22;7065;50.880;5.502;2022-10-17T17:52:52;15.60;99.90
13982;DHT22;7065;50.880;5.502;2022-10-17T17:55:17;15.60;99.90
13982;DHT22;7065;50.880;5.502;2022-10-17T17:57:43;15.60;99.90
13982;DHT22;7065;50.880;5.502;2022-10-17T18:00:09;15.60;99.90